createdAt,value
2019-05-21T00:00:27.878Z,9.60
2019-05-21T00:01:27.864Z,10.30
2019-05-21T00:02:27.855Z,9.80
2019-05-21T00:03:27.848Z,9.40
2019-05-21T00:04:28.712Z,10.20
2019-05-21T00:05:27.858Z,10.50
2019-05-21T00:06:27.811Z,10.20
2019-05-21T00:07:27.821Z,9.90
2019-05-21T00:08:27.818Z,9.80
2019-05-21T00:09:27.783Z,9.90
2019-05-21T00:10:27.774Z,9.50
2019-05-21T00:11:27.768Z,10.50
2019-05-21T00:12:27.776Z,11.50
2019-05-21T00:13:27.777Z,11.50
2019-05-21T00:14:27.722Z,10.90
2019-05-21T00:15:27.710Z,11.10
2019-05-21T00:16:27.712Z,10.40
2019-05-21T00:17:27.698Z,10.30
2019-05-21T00:18:27.692Z,10.60
2019-05-21T00:19:27.738Z,10.20
2019-05-21T00:20:27.661Z,10.00
2019-05-21T00:21:27.656Z,11.10
2019-05-21T00:22:27.665Z,10.40
2019-05-21T00:23:27.623Z,10.50
2019-05-21T00:24:27.617Z,10.90
2019-05-21T00:25:27.693Z,10.10
2019-05-21T00:26:27.596Z,10.10
2019-05-21T00:27:27.594Z,10.60
2019-05-21T00:28:27.582Z,10.20
2019-05-21T00:29:35.047Z,10.40
2019-05-21T00:30:27.544Z,10.40
2019-05-21T00:31:27.534Z,9.70
2019-05-21T00:32:27.530Z,11.30
2019-05-21T00:33:27.534Z,10.20
2019-05-21T00:34:41.791Z,10.20
2019-05-21T00:35:28.497Z,9.90
2019-05-21T00:36:27.563Z,9.80
2019-05-21T00:37:27.534Z,9.50
2019-05-21T00:38:27.464Z,10.00
2019-05-21T00:39:27.472Z,9.30
2019-05-21T00:40:27.447Z,9.50
2019-05-21T00:41:27.450Z,9.00
2019-05-21T00:42:27.470Z,9.00
2019-05-21T00:43:27.426Z,9.60
2019-05-21T00:44:27.435Z,8.50
2019-05-21T00:45:27.415Z,8.50
2019-05-21T00:46:27.381Z,9.00
2019-05-21T00:47:27.363Z,8.20
2019-05-21T00:48:27.356Z,8.50
2019-05-21T00:49:27.340Z,8.90
2019-05-21T00:50:27.408Z,8.40
2019-05-21T00:51:27.320Z,8.50
2019-05-21T00:52:27.313Z,7.60
2019-05-21T00:53:27.307Z,8.00
2019-05-21T00:54:27.290Z,7.90
2019-05-21T00:55:27.288Z,8.30
2019-05-21T00:56:27.354Z,8.80
2019-05-21T00:57:27.261Z,8.20
2019-05-21T00:58:27.244Z,8.80
2019-05-21T00:59:27.231Z,9.00
2019-05-21T01:00:27.223Z,8.80
2019-05-21T01:01:37.089Z,9.10
2019-05-21T01:02:27.201Z,8.40
2019-05-21T01:03:27.195Z,8.00
2019-05-21T01:04:27.181Z,8.10
2019-05-21T01:05:27.164Z,8.60
2019-05-21T01:06:27.165Z,9.30
2019-05-21T01:07:27.168Z,8.80
2019-05-21T01:08:27.178Z,8.80
2019-05-21T01:09:27.199Z,8.40
2019-05-21T01:10:27.116Z,9.00
2019-05-21T01:11:27.102Z,9.00
2019-05-21T01:12:27.151Z,8.90
2019-05-21T01:13:27.085Z,9.40
2019-05-21T01:14:27.103Z,9.60
2019-05-21T01:15:27.059Z,8.70
2019-05-21T01:16:27.063Z,9.60
2019-05-21T01:17:27.086Z,9.40
2019-05-21T01:18:27.065Z,10.00
2019-05-21T01:19:27.023Z,10.70
2019-05-21T01:20:27.009Z,9.80
2019-05-21T01:21:27.004Z,10.20
2019-05-21T01:22:26.985Z,9.70
2019-05-21T01:23:27.018Z,10.40
2019-05-21T01:24:27.024Z,10.30
2019-05-21T01:25:26.952Z,9.60
2019-05-21T01:26:26.941Z,9.80
2019-05-21T01:27:26.936Z,9.30
2019-05-21T01:28:26.929Z,9.40
2019-05-21T01:29:26.915Z,8.80
2019-05-21T01:30:26.945Z,9.10
2019-05-21T01:31:26.930Z,10.20
2019-05-21T01:32:26.879Z,9.50
2019-05-21T01:33:33.852Z,9.30
2019-05-21T01:34:26.855Z,9.30
2019-05-21T01:35:26.838Z,10.00
2019-05-21T01:36:26.834Z,9.60
2019-05-21T01:37:26.880Z,9.40
2019-05-21T01:38:26.832Z,9.60
2019-05-21T01:39:26.806Z,9.10
2019-05-21T01:40:26.789Z,9.50
2019-05-21T01:41:26.795Z,9.60
2019-05-21T01:42:26.767Z,10.10
2019-05-21T01:43:26.795Z,9.30
2019-05-21T01:44:26.770Z,8.90
2019-05-21T01:45:26.744Z,9.90
2019-05-21T01:46:26.728Z,9.70
2019-05-21T01:47:26.777Z,9.90
2019-05-21T01:48:26.702Z,10.20
2019-05-21T01:49:26.706Z,9.60
2019-05-21T01:50:26.678Z,10.30
2019-05-21T01:51:26.669Z,11.00
2019-05-21T01:52:26.752Z,9.60
2019-05-21T01:53:26.655Z,9.80
2019-05-21T01:54:26.641Z,9.30
2019-05-21T01:55:26.626Z,11.30
2019-05-21T01:56:26.624Z,10.50
2019-05-21T01:57:26.609Z,10.90
2019-05-21T01:58:26.729Z,10.40
2019-05-21T01:59:26.579Z,10.00
2019-05-21T02:00:26.578Z,10.00
2019-05-21T02:01:26.559Z,9.40
2019-05-21T02:02:26.555Z,10.00
2019-05-21T02:03:26.539Z,10.50
2019-05-21T02:04:26.608Z,10.30
2019-05-21T02:05:34.149Z,11.50
2019-05-21T02:06:26.501Z,10.20
2019-05-21T02:07:26.502Z,11.00
2019-05-21T02:08:26.499Z,11.10
2019-05-21T02:09:26.539Z,11.10
2019-05-21T02:10:26.464Z,11.60
2019-05-21T02:11:26.452Z,11.30
2019-05-21T02:12:26.478Z,11.80
2019-05-21T02:13:26.433Z,11.70
2019-05-21T02:14:26.487Z,11.10
2019-05-21T02:15:26.456Z,12.40
2019-05-21T02:16:26.400Z,12.20
2019-05-21T02:17:26.396Z,12.50
2019-05-21T02:18:26.382Z,11.80
2019-05-21T02:19:26.390Z,11.80
2019-05-21T02:20:26.466Z,13.40
2019-05-21T02:21:26.350Z,11.60
2019-05-21T02:22:26.342Z,12.70
2019-05-21T02:23:26.326Z,12.20
2019-05-21T02:24:26.315Z,12.20
2019-05-21T02:25:26.342Z,11.80
2019-05-21T02:26:26.328Z,11.90
2019-05-21T02:27:26.282Z,11.80
2019-05-21T02:28:26.269Z,10.80
2019-05-21T02:29:26.270Z,11.20
2019-05-21T02:30:26.256Z,11.50
2019-05-21T02:31:26.275Z,11.50
2019-05-21T02:32:26.279Z,10.40
2019-05-21T02:33:26.217Z,10.20
2019-05-21T02:34:26.207Z,9.60
2019-05-21T02:35:26.194Z,10.50
2019-05-21T02:36:26.209Z,9.30
2019-05-21T02:37:34.698Z,9.70
2019-05-21T02:38:26.176Z,9.80
2019-05-21T02:39:26.154Z,9.50
2019-05-21T02:40:26.139Z,9.90
2019-05-21T02:41:26.146Z,9.50
2019-05-21T02:42:26.122Z,9.60
2019-05-21T02:43:26.157Z,9.60
2019-05-21T02:44:26.092Z,10.10
2019-05-21T02:45:26.090Z,10.00
2019-05-21T02:46:26.124Z,8.90
2019-05-21T02:47:26.066Z,9.70
2019-05-21T02:48:26.096Z,9.50
2019-05-21T02:49:26.049Z,9.00
2019-05-21T02:50:26.035Z,8.80
2019-05-21T02:51:26.065Z,8.80
2019-05-21T02:52:26.004Z,9.20
2019-05-21T02:53:26.013Z,9.60
2019-05-21T02:54:40.280Z,9.40
2019-05-21T02:55:26.973Z,9.50
2019-05-21T02:56:25.984Z,9.60
2019-05-21T02:57:26.008Z,9.90
2019-05-21T02:58:25.949Z,9.40
2019-05-21T02:59:25.937Z,8.80
2019-05-21T03:00:25.935Z,9.00
2019-05-21T03:01:25.908Z,9.40
2019-05-21T03:02:25.907Z,10.00
2019-05-21T03:03:25.984Z,10.70
2019-05-21T03:04:25.884Z,9.80
2019-05-21T03:05:25.873Z,9.60
2019-05-21T03:06:25.861Z,10.10
2019-05-21T03:07:25.921Z,9.90
2019-05-21T03:08:25.842Z,10.70
2019-05-21T03:09:34.687Z,11.00
2019-05-21T03:10:25.817Z,11.00
2019-05-21T03:11:25.804Z,11.10
2019-05-21T03:12:25.797Z,11.00
2019-05-21T03:13:25.785Z,11.50
2019-05-21T03:14:25.791Z,12.70
2019-05-21T03:15:25.783Z,12.70
2019-05-21T03:16:25.763Z,13.60
2019-05-21T03:17:25.735Z,14.00
2019-05-21T03:18:25.759Z,14.40
2019-05-21T03:19:25.787Z,16.10
2019-05-21T03:20:25.714Z,16.10
2019-05-21T03:21:25.755Z,15.00
2019-05-21T03:22:25.682Z,15.70
2019-05-21T03:23:25.676Z,16.00
2019-05-21T03:24:25.659Z,15.00
2019-05-21T03:25:25.695Z,14.90
2019-05-21T03:26:25.715Z,14.90
2019-05-21T03:27:25.669Z,13.80
2019-05-21T03:28:25.615Z,13.40
2019-05-21T03:29:25.688Z,13.50
2019-05-21T03:30:25.601Z,12.80
2019-05-21T03:31:25.639Z,14.30
2019-05-21T03:32:25.626Z,14.00
2019-05-21T03:33:25.572Z,12.70
2019-05-21T03:34:25.588Z,14.20
2019-05-21T03:35:25.548Z,11.70
2019-05-21T03:36:33.576Z,11.90
2019-05-21T03:37:26.538Z,12.20
2019-05-21T03:38:25.531Z,12.80
2019-05-21T03:39:25.499Z,12.20
2019-05-21T03:40:25.485Z,12.20
2019-05-21T03:41:34.222Z,12.40
2019-05-21T03:42:25.472Z,12.20
2019-05-21T03:43:25.458Z,12.70
2019-05-21T03:44:25.446Z,11.90
2019-05-21T03:45:25.435Z,12.60
2019-05-21T03:46:25.431Z,12.30
2019-05-21T03:47:25.428Z,12.10
2019-05-21T03:48:25.409Z,12.60
2019-05-21T03:49:25.434Z,12.10
2019-05-21T03:50:25.389Z,11.70
2019-05-21T03:51:25.422Z,11.80
2019-05-21T03:52:25.366Z,11.30
2019-05-21T03:53:25.472Z,11.40
2019-05-21T03:54:25.393Z,10.60
2019-05-21T03:55:25.329Z,12.40
2019-05-21T03:56:25.323Z,11.40
2019-05-21T03:57:25.306Z,11.80
2019-05-21T03:58:25.295Z,13.10
2019-05-21T03:59:25.369Z,12.10
2019-05-21T04:00:25.303Z,12.20
2019-05-21T04:01:25.268Z,12.00
2019-05-21T04:02:25.246Z,12.20
2019-05-21T04:03:25.245Z,13.30
2019-05-21T04:04:25.235Z,12.70
2019-05-21T04:05:25.276Z,12.40
2019-05-21T04:06:28.729Z,12.30
2019-05-21T04:07:25.193Z,12.00
2019-05-21T04:08:25.191Z,12.50
2019-05-21T04:09:25.242Z,12.90
2019-05-21T04:10:25.172Z,13.10
2019-05-21T04:11:25.161Z,12.50
2019-05-21T04:12:25.147Z,12.80
2019-05-21T04:13:32.620Z,12.40
2019-05-21T04:14:25.131Z,13.80
2019-05-21T04:15:25.122Z,13.40
2019-05-21T04:16:25.157Z,14.40
2019-05-21T04:17:25.085Z,13.70
2019-05-21T04:18:25.098Z,13.00
2019-05-21T04:19:25.097Z,13.30
2019-05-21T04:20:25.057Z,14.00
2019-05-21T04:21:25.068Z,12.60
2019-05-21T04:22:25.091Z,12.50
2019-05-21T04:23:25.021Z,12.10
2019-05-21T04:24:25.064Z,11.50
2019-05-21T04:25:25.129Z,12.70
2019-05-21T04:26:24.998Z,12.30
2019-05-21T04:27:24.992Z,12.50
2019-05-21T04:28:24.975Z,12.70
2019-05-21T04:29:25.029Z,12.40
2019-05-21T04:30:24.946Z,11.20
2019-05-21T04:31:25.029Z,12.60
2019-05-21T04:32:24.937Z,11.60
2019-05-21T04:33:24.916Z,11.30
2019-05-21T04:34:25.028Z,11.30
2019-05-21T04:35:24.892Z,11.70
2019-05-21T04:36:24.888Z,11.70
2019-05-21T04:37:24.915Z,12.70
2019-05-21T04:38:24.855Z,12.50
2019-05-21T04:39:24.878Z,12.30
2019-05-21T04:40:24.839Z,12.80
2019-05-21T04:41:24.834Z,12.20
2019-05-21T04:42:24.815Z,12.20
2019-05-21T04:43:24.827Z,12.50
2019-05-21T04:44:24.795Z,12.10
2019-05-21T04:45:32.756Z,11.80
2019-05-21T04:46:24.809Z,12.90
2019-05-21T04:47:24.763Z,12.80
2019-05-21T04:48:24.759Z,13.30
2019-05-21T04:49:24.740Z,12.80
2019-05-21T04:50:24.744Z,13.00
2019-05-21T04:51:24.721Z,13.70
2019-05-21T04:52:24.800Z,14.30
2019-05-21T04:53:24.704Z,14.60
2019-05-21T04:54:24.696Z,13.60
2019-05-21T04:55:24.717Z,14.80
2019-05-21T04:56:24.667Z,13.90
2019-05-21T04:57:24.666Z,13.40
2019-05-21T04:58:24.691Z,14.00
2019-05-21T04:59:24.638Z,14.10
2019-05-21T05:00:24.669Z,14.30
2019-05-21T05:01:24.610Z,14.80
2019-05-21T05:02:24.594Z,15.00
2019-05-21T05:03:24.595Z,14.90
2019-05-21T05:04:24.611Z,14.50
2019-05-21T05:05:24.618Z,15.10
2019-05-21T05:06:24.607Z,14.40
2019-05-21T05:07:28.292Z,15.80
2019-05-21T05:08:24.543Z,16.10
2019-05-21T05:09:24.577Z,15.60
2019-05-21T05:10:24.556Z,14.20
2019-05-21T05:11:24.502Z,14.20
2019-05-21T05:12:24.543Z,14.20
2019-05-21T05:13:24.479Z,15.30
2019-05-21T05:14:24.472Z,14.80
2019-05-21T05:15:24.450Z,14.70
2019-05-21T05:16:24.458Z,15.00
2019-05-21T05:17:32.307Z,14.70
2019-05-21T05:18:24.420Z,15.00
2019-05-21T05:19:24.415Z,15.70
2019-05-21T05:20:24.413Z,15.50
2019-05-21T05:21:24.386Z,14.80
2019-05-21T05:22:24.383Z,14.80
2019-05-21T05:23:24.376Z,15.90
2019-05-21T05:24:24.401Z,15.10
2019-05-21T05:25:24.373Z,15.70
2019-05-21T05:26:24.336Z,16.50
2019-05-21T05:27:24.365Z,16.70
2019-05-21T05:28:24.318Z,16.00
2019-05-21T05:29:24.350Z,17.60
2019-05-21T05:30:24.297Z,17.40
2019-05-21T05:31:24.290Z,18.10
2019-05-21T05:32:24.290Z,17.60
2019-05-21T05:33:24.259Z,18.10
2019-05-21T05:34:24.257Z,17.40
2019-05-21T05:35:24.239Z,18.70
2019-05-21T05:36:24.246Z,16.90
2019-05-21T05:37:24.257Z,17.60
2019-05-21T05:38:24.234Z,18.40
2019-05-21T05:39:24.191Z,18.60
2019-05-21T05:40:24.186Z,18.70
2019-05-21T05:41:24.174Z,17.30
2019-05-21T05:42:24.169Z,18.90
2019-05-21T05:43:24.172Z,19.10
2019-05-21T05:44:24.168Z,18.10
2019-05-21T05:45:24.132Z,18.90
2019-05-21T05:46:24.118Z,19.40
2019-05-21T05:47:24.101Z,18.00
2019-05-21T05:48:24.118Z,17.70
2019-05-21T05:49:31.576Z,18.00
2019-05-21T05:50:24.092Z,16.50
2019-05-21T05:51:24.088Z,15.30
2019-05-21T05:52:24.059Z,14.70
2019-05-21T05:53:24.056Z,13.20
2019-05-21T05:54:24.032Z,14.30
2019-05-21T05:55:24.025Z,14.50
2019-05-21T05:56:24.035Z,13.40
2019-05-21T05:57:24.051Z,15.80
2019-05-21T05:58:24.012Z,13.80
2019-05-21T05:59:24.030Z,14.70
2019-05-21T06:00:23.970Z,13.60
2019-05-21T06:01:23.965Z,13.70
2019-05-21T06:02:23.966Z,13.70
2019-05-21T06:03:23.937Z,14.00
2019-05-21T06:04:23.968Z,13.80
2019-05-21T06:05:23.924Z,14.30
2019-05-21T06:06:23.914Z,14.70
2019-05-21T06:07:23.939Z,14.70
2019-05-21T06:08:23.883Z,13.90
2019-05-21T06:09:23.897Z,14.20
2019-05-21T06:10:23.884Z,14.70
2019-05-21T06:11:23.890Z,15.10
2019-05-21T06:12:23.902Z,15.50
2019-05-21T06:13:23.879Z,15.90
2019-05-21T06:14:23.853Z,13.70
2019-05-21T06:15:23.802Z,15.10
2019-05-21T06:16:23.793Z,15.00
2019-05-21T06:17:23.786Z,13.40
2019-05-21T06:18:23.806Z,15.60
2019-05-21T06:19:23.772Z,16.10
2019-05-21T06:20:23.747Z,16.20
2019-05-21T06:21:31.353Z,17.50
2019-05-21T06:22:23.733Z,15.60
2019-05-21T06:23:23.760Z,15.20
2019-05-21T06:24:23.704Z,15.80
2019-05-21T06:25:23.697Z,15.80
2019-05-21T06:26:23.710Z,15.20
2019-05-21T06:27:23.679Z,16.30
2019-05-21T06:28:23.706Z,15.90
2019-05-21T06:29:23.707Z,16.60
2019-05-21T06:30:23.652Z,15.60
2019-05-21T06:51:23.460Z,14.00
2019-05-21T06:53:30.886Z,14.10
2019-05-21T06:58:23.336Z,14.70
2019-05-21T06:59:23.423Z,15.10
2019-05-21T07:00:23.314Z,15.30
2019-05-21T07:01:28.916Z,14.90
2019-05-21T07:02:24.342Z,14.40
2019-05-21T07:03:23.333Z,14.10
2019-05-21T07:04:23.271Z,14.20
2019-05-21T07:05:23.289Z,14.90
2019-05-21T07:06:23.251Z,15.10
2019-05-21T07:07:23.244Z,15.30
2019-05-21T07:08:34.013Z,15.20
2019-05-21T07:09:24.308Z,15.70
2019-05-21T07:10:23.889Z,15.90
2019-05-21T07:11:23.201Z,14.60
2019-05-21T07:12:23.188Z,14.90
2019-05-21T07:13:23.175Z,15.40
2019-05-21T07:14:23.213Z,15.50
2019-05-21T07:15:23.157Z,15.00
2019-05-21T07:16:23.175Z,15.90
2019-05-21T07:17:23.129Z,18.00
2019-05-21T07:18:23.124Z,24.20
2019-05-21T07:19:23.115Z,16.50
2019-05-21T07:20:23.126Z,16.60
2019-05-21T07:21:23.104Z,15.90
2019-05-21T07:22:23.133Z,15.60
2019-05-21T07:23:23.069Z,16.30
2019-05-21T07:24:23.057Z,16.00
2019-05-21T07:25:30.544Z,14.20
2019-05-21T07:26:23.039Z,14.40
2019-05-21T07:27:23.014Z,15.20
2019-05-21T07:28:23.050Z,15.30
2019-05-21T07:29:22.993Z,16.00
2019-05-21T07:30:22.996Z,15.00
2019-05-21T07:32:22.967Z,16.10
2019-05-21T07:33:22.968Z,16.80
2019-05-21T07:34:22.974Z,16.30
2019-05-21T07:35:22.935Z,16.10
2019-05-21T07:36:22.914Z,16.00
2019-05-21T07:37:22.936Z,16.90
2019-05-21T07:38:22.906Z,16.40
2019-05-21T07:39:22.887Z,15.50
2019-05-21T07:40:22.881Z,16.30
2019-05-21T07:41:22.864Z,16.90
2019-05-21T07:42:22.890Z,16.00
2019-05-21T07:43:22.852Z,15.80
2019-05-21T07:44:22.859Z,17.50
2019-05-21T07:45:22.817Z,16.50
2019-05-21T07:46:22.809Z,15.60
2019-05-21T07:47:22.803Z,15.90
2019-05-21T07:48:22.809Z,15.50
2019-05-21T07:49:22.892Z,16.00
2019-05-21T07:50:22.764Z,17.30
2019-05-21T07:51:22.763Z,15.10
2019-05-21T07:52:22.752Z,17.10
2019-05-21T07:53:22.731Z,15.50
2019-05-21T07:54:22.721Z,16.70
2019-05-21T07:55:22.778Z,18.50
2019-05-21T07:56:22.757Z,17.10
2019-05-21T07:57:30.425Z,18.50
2019-05-21T07:58:22.678Z,19.40
2019-05-21T07:59:22.673Z,16.70
2019-05-21T08:00:22.700Z,17.10
2019-05-21T08:01:22.646Z,16.00
2019-05-21T08:03:22.630Z,16.10
2019-05-21T08:04:22.643Z,16.50
2019-05-21T08:05:22.604Z,16.10
2019-05-21T08:06:22.631Z,16.80
2019-05-21T08:07:22.638Z,17.10
2019-05-21T08:08:22.576Z,17.40
2019-05-21T08:09:22.560Z,19.00
2019-05-21T08:10:22.546Z,18.50
2019-05-21T08:11:22.538Z,17.30
2019-05-21T08:12:37.297Z,15.50
2019-05-21T08:13:23.511Z,15.60
2019-05-21T08:14:22.507Z,15.90
2019-05-21T08:15:22.498Z,14.20
2019-05-21T08:16:22.484Z,15.40
2019-05-21T08:17:22.486Z,14.30
2019-05-21T08:18:22.475Z,14.50
2019-05-21T08:19:22.514Z,14.30
2019-05-21T08:20:22.445Z,13.90
2019-05-21T08:21:22.441Z,15.00
2019-05-21T08:22:22.442Z,15.10
2019-05-21T08:23:22.439Z,15.20
2019-05-21T08:24:22.410Z,17.90
2019-05-21T08:25:22.387Z,17.30
2019-05-21T08:26:22.381Z,16.70
2019-05-21T08:27:22.362Z,17.80
2019-05-21T08:28:22.383Z,16.20
2019-05-21T08:29:32.457Z,16.80
2019-05-21T08:30:22.338Z,16.90
2019-05-21T08:31:22.323Z,17.20
2019-05-21T08:32:22.311Z,16.80
2019-05-21T08:33:22.330Z,19.70
2019-05-21T08:34:22.340Z,16.10
2019-05-21T08:35:22.362Z,16.90
2019-05-21T08:36:22.267Z,17.60
2019-05-21T08:37:22.256Z,18.20
2019-05-21T08:38:22.284Z,17.50
2019-05-21T08:39:28.838Z,16.90
2019-05-21T08:40:23.226Z,17.50
2019-05-21T08:41:22.264Z,18.10
2019-05-21T08:42:22.202Z,19.70
2019-05-21T08:43:22.356Z,19.00
2019-05-21T08:44:22.188Z,19.30
2019-05-21T08:45:22.214Z,17.00
2019-05-21T08:46:22.161Z,19.30
2019-05-21T08:47:22.149Z,16.70
2019-05-21T08:48:22.147Z,17.90
2019-05-21T08:49:22.139Z,17.70
2019-05-21T08:50:22.135Z,18.90
2019-05-21T08:51:22.135Z,17.00
2019-05-21T08:52:22.113Z,17.70
2019-05-21T08:53:22.083Z,17.80
2019-05-21T08:54:22.077Z,16.10
2019-05-21T08:55:22.058Z,17.40
2019-05-21T08:56:22.099Z,16.80
2019-05-21T08:57:22.047Z,19.80
2019-05-21T08:58:22.028Z,16.90
2019-05-21T08:59:22.020Z,17.10
2019-05-21T09:00:22.025Z,17.20
2019-05-21T09:01:28.984Z,18.80
2019-05-21T09:02:22.020Z,16.50
2019-05-21T09:03:21.979Z,15.80
2019-05-21T09:04:21.966Z,16.70
2019-05-21T09:05:21.952Z,17.70
2019-05-21T09:06:21.954Z,17.00
2019-05-21T09:07:22.019Z,19.60
2019-05-21T09:08:21.932Z,16.70
2019-05-21T09:09:21.912Z,18.00
2019-05-21T09:10:21.905Z,18.80
2019-05-21T09:11:21.904Z,16.50
2019-05-21T09:12:21.885Z,16.10
2019-05-21T09:13:21.870Z,16.40
2019-05-21T09:14:21.916Z,17.10
2019-05-21T09:15:21.856Z,16.30
2019-05-21T09:16:21.857Z,16.00
2019-05-21T09:17:21.929Z,15.60
2019-05-21T09:18:21.899Z,14.70
2019-05-21T09:19:21.811Z,16.40
2019-05-21T09:20:21.798Z,15.90
2019-05-21T09:21:21.796Z,15.20
2019-05-21T09:22:21.789Z,17.00
2019-05-21T09:23:21.907Z,18.10
2019-05-21T09:24:21.768Z,16.50
2019-05-21T09:25:21.741Z,18.20
2019-05-21T09:26:21.736Z,16.60
2019-05-21T09:27:21.727Z,16.30
2019-05-21T09:28:21.753Z,17.20
2019-05-21T09:29:21.704Z,17.70
2019-05-21T09:30:21.698Z,18.60
2019-05-21T09:31:21.679Z,17.40
2019-05-21T09:32:21.681Z,18.00
2019-05-21T09:33:30.512Z,18.30
2019-05-21T09:34:21.660Z,18.80
2019-05-21T09:35:21.648Z,18.30
2019-05-21T09:36:25.070Z,18.50
2019-05-21T09:37:21.623Z,18.40
2019-05-21T09:38:21.603Z,18.30
2019-05-21T09:39:21.605Z,17.90
2019-05-21T09:40:21.623Z,17.10
2019-05-21T09:41:21.613Z,19.50
2019-05-21T09:42:21.571Z,18.30
2019-05-21T09:43:21.607Z,20.00
2019-05-21T09:44:21.543Z,19.30
2019-05-21T09:45:21.591Z,17.90
2019-05-21T09:46:21.542Z,19.00
2019-05-21T09:47:21.525Z,17.30
2019-05-21T09:48:21.518Z,19.10
2019-05-21T09:49:21.495Z,18.60
2019-05-21T09:50:21.481Z,18.80
2019-05-21T09:51:21.487Z,20.10
2019-05-21T09:52:21.469Z,21.10
2019-05-21T09:53:21.453Z,20.20
2019-05-21T09:54:21.451Z,20.00
2019-05-21T09:55:21.451Z,18.90
2019-05-21T09:56:21.429Z,18.90
2019-05-21T09:57:21.408Z,18.70
2019-05-21T09:58:21.399Z,21.60
2019-05-21T09:59:21.384Z,21.50
2019-05-21T10:00:21.380Z,22.30
2019-05-21T10:01:21.389Z,21.60
2019-05-21T10:02:21.365Z,21.50
2019-05-21T10:03:21.338Z,20.90
2019-05-21T10:04:21.340Z,21.00
2019-05-21T10:05:28.820Z,21.70
2019-05-21T10:06:21.308Z,22.50
2019-05-21T10:07:38.165Z,23.50
2019-05-21T10:08:22.294Z,22.90
2019-05-21T10:09:21.287Z,22.60
2019-05-21T10:10:21.272Z,21.40
2019-05-21T10:11:21.261Z,22.40
2019-05-21T10:12:21.281Z,20.90
2019-05-21T10:13:21.266Z,21.00
2019-05-21T10:14:21.224Z,20.90
2019-05-21T10:15:21.226Z,20.50
2019-05-21T10:16:21.205Z,20.80
2019-05-21T10:17:21.210Z,19.70
2019-05-21T10:18:21.203Z,21.60
2019-05-21T10:19:21.173Z,21.10
2019-05-21T10:20:21.190Z,19.40
2019-05-21T10:21:21.168Z,18.90
2019-05-21T10:22:21.193Z,18.60
2019-05-21T10:23:21.143Z,18.60
2019-05-21T10:24:21.127Z,19.20
2019-05-21T10:25:21.116Z,18.10
2019-05-21T10:26:21.103Z,16.90
2019-05-21T10:27:21.092Z,19.10
2019-05-21T10:28:21.095Z,17.30
2019-05-21T10:29:21.075Z,16.70
2019-05-21T10:30:21.062Z,17.70
2019-05-21T10:31:21.055Z,16.90
2019-05-21T10:32:21.038Z,18.50
2019-05-21T10:33:21.058Z,18.30
2019-05-21T10:34:21.018Z,17.60
2019-05-21T10:35:21.012Z,17.90
2019-05-21T10:36:21.003Z,18.20
2019-05-21T10:37:27.973Z,18.60
2019-05-21T10:38:20.981Z,18.60
2019-05-21T10:39:20.973Z,20.20
2019-05-21T10:40:20.960Z,18.70
2019-05-21T10:41:20.943Z,17.20
2019-05-21T10:42:20.943Z,16.50
2019-05-21T10:43:20.928Z,17.00
2019-05-21T10:44:20.960Z,17.80
2019-05-21T10:45:20.908Z,18.60
2019-05-21T10:46:20.896Z,19.20
2019-05-21T10:47:20.979Z,17.60
2019-05-21T10:48:20.878Z,17.20
2019-05-21T10:49:20.865Z,16.70
2019-05-21T10:50:20.870Z,18.50
2019-05-21T10:51:20.855Z,18.80
2019-05-21T10:52:20.834Z,16.40
2019-05-21T10:53:20.826Z,17.80
2019-05-21T10:54:20.883Z,17.80
2019-05-21T10:55:20.863Z,17.70
2019-05-21T10:56:20.791Z,17.20
2019-05-21T10:57:20.790Z,19.50
2019-05-21T10:58:20.773Z,17.80
2019-05-21T10:59:20.760Z,16.90
2019-05-21T11:00:22.854Z,17.10
2019-05-21T11:01:20.760Z,17.70
2019-05-21T11:02:20.729Z,17.30
2019-05-21T11:03:20.829Z,18.20
2019-05-21T11:04:20.783Z,16.50
2019-05-21T11:05:20.704Z,19.50
2019-05-21T11:06:20.705Z,19.00
2019-05-21T11:07:20.697Z,17.90
2019-05-21T11:08:24.129Z,18.30
2019-05-21T11:09:28.617Z,18.70
2019-05-21T11:10:20.796Z,19.90
2019-05-21T11:11:21.344Z,19.90
2019-05-21T11:12:20.630Z,23.70
2019-05-21T11:13:20.617Z,22.80
2019-05-21T11:14:20.602Z,20.20
2019-05-21T11:15:20.596Z,22.30
2019-05-21T11:16:20.638Z,21.70
2019-05-21T11:17:20.583Z,20.50
2019-05-21T11:18:20.568Z,22.70
2019-05-21T11:19:20.548Z,19.80
2019-05-21T11:20:20.545Z,21.70
2019-05-21T11:21:20.527Z,22.40
2019-05-21T11:22:20.529Z,22.20
2019-05-21T11:23:20.507Z,21.10
2019-05-21T11:24:20.499Z,21.80
2019-05-21T11:25:20.499Z,19.20
2019-05-21T11:26:20.518Z,19.80
2019-05-21T11:27:20.492Z,20.70
2019-05-21T11:28:20.455Z,20.10
2019-05-21T11:29:20.478Z,19.20
2019-05-21T11:30:20.445Z,20.60
2019-05-21T11:31:20.434Z,22.00
2019-05-21T11:32:20.413Z,21.40
2019-05-21T11:33:20.414Z,22.30
2019-05-21T11:34:20.391Z,21.30
2019-05-21T11:35:20.386Z,21.20
2019-05-21T11:36:20.371Z,22.00
2019-05-21T11:37:20.378Z,22.10
2019-05-21T11:38:20.360Z,22.00
2019-05-21T11:39:20.334Z,21.00
2019-05-21T11:40:20.329Z,20.30
2019-05-21T11:41:28.111Z,18.70
2019-05-21T11:42:20.339Z,20.50
2019-05-21T11:43:20.294Z,19.70
2019-05-21T11:44:20.299Z,23.00
2019-05-21T11:45:31.607Z,20.70
2019-05-21T11:46:21.272Z,20.10
2019-05-21T11:47:20.259Z,19.80
2019-05-21T11:48:20.290Z,21.80
2019-05-21T11:49:20.233Z,21.60
2019-05-21T11:50:20.227Z,21.50
2019-05-21T11:51:20.243Z,21.40
2019-05-21T11:52:20.221Z,20.60
2019-05-21T11:53:20.242Z,21.90
2019-05-21T11:54:20.196Z,20.70
2019-05-21T11:55:20.172Z,21.30
2019-05-21T11:56:20.156Z,21.40
2019-05-21T11:57:20.142Z,21.10
2019-05-21T11:58:20.142Z,22.50
2019-05-21T11:59:20.179Z,21.60
2019-05-21T12:00:21.689Z,22.90
2019-05-21T12:01:20.102Z,22.40
2019-05-21T12:02:20.088Z,21.90
2019-05-21T12:03:20.089Z,20.80
2019-05-21T12:04:20.074Z,22.50
2019-05-21T12:05:20.265Z,22.10
2019-05-21T12:06:20.067Z,21.80
2019-05-21T12:07:20.041Z,22.70
2019-05-21T12:08:20.030Z,21.80
2019-05-21T12:09:20.016Z,22.10
2019-05-21T12:10:20.028Z,22.80
2019-05-21T12:11:19.993Z,24.00
2019-05-21T12:12:19.990Z,19.70
2019-05-21T12:13:26.961Z,24.70
2019-05-21T12:14:19.964Z,24.10
2019-05-21T12:15:19.944Z,23.50
2019-05-21T12:16:19.943Z,23.70
2019-05-21T12:17:19.930Z,23.40
2019-05-21T12:18:19.914Z,22.90
2019-05-21T12:19:19.903Z,23.20
2019-05-21T12:20:35.459Z,24.10
2019-05-21T12:21:20.901Z,26.00
2019-05-21T12:22:19.904Z,25.70
2019-05-21T12:23:19.900Z,25.90
2019-05-21T12:24:19.870Z,35.30
2019-05-21T12:25:19.845Z,34.80
2019-05-21T12:26:19.883Z,33.60
2019-05-21T12:27:19.883Z,35.00
2019-05-21T12:28:19.806Z,34.10
2019-05-21T12:29:19.799Z,33.80
2019-05-21T12:30:19.898Z,34.10
2019-05-21T12:31:19.771Z,33.40
2019-05-21T12:32:21.162Z,34.10
2019-05-21T12:33:19.751Z,33.50
2019-05-21T12:34:19.735Z,33.30
2019-05-21T12:35:19.736Z,32.40
2019-05-21T12:36:19.715Z,31.60
2019-05-21T12:37:19.718Z,32.50
2019-05-21T12:38:19.695Z,33.00
2019-05-21T12:39:19.690Z,33.50
2019-05-21T12:40:19.677Z,33.90
2019-05-21T12:41:19.685Z,33.20
2019-05-21T12:42:19.711Z,33.70
2019-05-21T12:43:19.646Z,33.60
2019-05-21T12:44:19.640Z,32.80
2019-05-21T12:45:27.164Z,33.10
2019-05-21T12:46:19.600Z,32.70
2019-05-21T12:47:19.600Z,32.90
2019-05-21T12:48:19.625Z,33.40
2019-05-21T12:49:19.570Z,34.40
2019-05-21T12:50:19.561Z,34.70
2019-05-21T12:51:19.552Z,34.50
2019-05-21T12:52:19.575Z,34.80
2019-05-21T12:53:19.531Z,35.30
2019-05-21T12:54:19.528Z,34.40
2019-05-21T12:55:19.531Z,33.30
2019-05-21T12:56:19.514Z,33.30
2019-05-21T12:57:19.541Z,33.10
2019-05-21T12:58:19.475Z,33.90
2019-05-21T12:59:19.473Z,31.80
2019-05-21T13:00:19.450Z,32.00
2019-05-21T13:01:19.458Z,32.40
2019-05-21T13:02:19.428Z,33.00
2019-05-21T13:03:19.421Z,33.00
2019-05-21T13:04:19.576Z,36.00
2019-05-21T13:05:19.405Z,34.90
2019-05-21T13:06:19.396Z,34.90
2019-05-21T13:07:19.376Z,34.30
2019-05-21T13:08:19.361Z,32.20
2019-05-21T13:09:32.388Z,32.30
2019-05-21T13:10:20.360Z,32.00
2019-05-21T13:11:19.335Z,31.70
2019-05-21T13:12:19.322Z,34.40
2019-05-21T13:13:19.308Z,33.80
2019-05-21T13:14:19.302Z,32.90
2019-05-21T13:15:19.311Z,31.30
2019-05-21T13:16:19.277Z,30.50
2019-05-21T13:17:27.193Z,30.00
2019-05-21T13:18:19.282Z,31.40
2019-05-21T13:19:19.252Z,30.10
2019-05-21T13:20:19.235Z,30.90
2019-05-21T13:21:19.267Z,30.70
2019-05-21T13:22:19.223Z,32.00
2019-05-21T13:23:19.227Z,31.80